createdAt,value
2023-04-12T00:04:54.360Z,61.5
2023-04-12T00:10:00.774Z,62
2023-04-12T00:15:08.479Z,62
2023-04-12T00:20:16.291Z,62
2023-04-12T00:25:24.282Z,62
2023-04-12T00:30:32.198Z,62
2023-04-12T00:35:40.180Z,62
2023-04-12T00:40:48.118Z,62
2023-04-12T00:45:56.057Z,62
2023-04-12T00:51:04.080Z,62
2023-04-12T00:56:12.020Z,62
2023-04-12T01:01:20.046Z,62
2023-04-12T01:06:28.002Z,62
2023-04-12T01:11:35.957Z,62
2023-04-12T01:16:43.942Z,62
2023-04-12T01:21:51.819Z,62
2023-04-12T01:26:59.746Z,62
2023-04-12T01:32:07.886Z,62.5
2023-04-12T01:37:15.683Z,62.5
2023-04-12T01:42:23.603Z,62
2023-04-12T01:47:31.618Z,62.5
2023-04-12T01:52:39.554Z,62.5
2023-04-12T01:57:47.497Z,62.5
2023-04-12T02:02:55.676Z,62.5
2023-04-12T02:08:03.422Z,62.5
2023-04-12T02:13:11.361Z,62.5
2023-04-12T02:18:19.335Z,62.5
2023-04-12T02:23:27.365Z,62.5
2023-04-12T02:28:35.261Z,62.5
2023-04-12T02:33:43.217Z,62.5
2023-04-12T02:38:51.168Z,62.5
2023-04-12T02:43:59.223Z,62.5
2023-04-12T02:49:07.070Z,63
2023-04-12T02:54:15.052Z,63
2023-04-12T02:59:23.166Z,63
2023-04-12T03:04:31.170Z,63
2023-04-12T03:09:38.935Z,63
2023-04-12T03:14:46.891Z,63
2023-04-12T03:19:53.063Z,63
2023-04-12T03:24:59.240Z,63
2023-04-12T03:30:07.185Z,63
2023-04-12T03:35:15.128Z,63
2023-04-12T03:40:23.077Z,63.5
2023-04-12T03:45:29.301Z,63.5
2023-04-12T03:50:37.216Z,63.5
2023-04-12T03:55:45.179Z,63.5
2023-04-12T04:00:53.148Z,63.5
2023-04-12T04:06:01.080Z,63.5
2023-04-12T04:11:09.124Z,63.5
2023-04-12T04:16:17.111Z,63.5
2023-04-12T04:21:24.974Z,63.5
2023-04-12T04:26:32.991Z,63.5
2023-04-12T04:31:40.941Z,64
2023-04-12T04:36:48.847Z,64
2023-04-12T04:41:56.890Z,64
2023-04-12T04:47:04.789Z,64
2023-04-12T04:52:12.729Z,64
2023-04-12T04:57:20.687Z,64
2023-04-12T05:02:28.737Z,64
2023-04-12T05:07:36.639Z,64
2023-04-12T05:12:44.535Z,64
2023-04-12T05:17:52.660Z,64
2023-04-12T05:23:00.468Z,64
2023-04-12T05:28:08.431Z,64
2023-04-12T05:33:16.397Z,64
2023-04-12T05:38:24.349Z,64
2023-04-12T05:43:32.306Z,64
2023-04-12T05:53:48.239Z,64
2023-04-12T05:58:56.380Z,64
2023-04-12T06:04:04.272Z,64
2023-04-12T06:09:12.113Z,64
2023-04-12T06:14:20.094Z,64.5
2023-04-12T06:19:28.038Z,64.5
2023-04-12T06:24:36.054Z,64.5
2023-04-12T06:29:43.977Z,64.5
2023-04-12T06:34:51.914Z,64.5
2023-04-12T06:39:59.851Z,64.5
2023-04-12T06:45:07.841Z,64.5
2023-04-12T06:50:15.827Z,64.5
2023-04-12T06:55:23.731Z,64.5
2023-04-12T07:00:31.748Z,64.5
2023-04-12T07:05:39.676Z,64.5
2023-04-12T07:10:47.659Z,65
2023-04-12T07:15:55.590Z,65
2023-04-12T07:21:03.559Z,65
2023-04-12T07:26:11.515Z,65
2023-04-12T07:31:19.479Z,65
2023-04-12T07:36:25.639Z,65
2023-04-12T07:41:33.603Z,65
2023-04-12T07:46:41.575Z,65
2023-04-12T07:51:49.525Z,65
2023-04-12T07:56:57.471Z,65.5
2023-04-12T08:02:05.500Z,65.5
2023-04-12T08:07:13.380Z,65.5
2023-04-12T08:12:21.330Z,65.5
2023-04-12T08:17:29.546Z,65.5
2023-04-12T08:22:37.250Z,65.5
2023-04-12T08:27:45.191Z,65.5
2023-04-12T08:32:53.209Z,65.5
2023-04-12T08:38:01.104Z,65.5
2023-04-12T08:43:07.334Z,65.5
2023-04-12T08:48:15.244Z,65.5
2023-04-12T08:53:23.226Z,66
2023-04-12T08:58:31.163Z,66
2023-04-12T09:03:39.423Z,66
2023-04-12T09:08:47.105Z,66
2023-04-12T09:13:55.059Z,66
2023-04-12T09:19:03.009Z,66
2023-04-12T09:24:13.533Z,66
2023-04-12T09:29:18.944Z,66
2023-04-12T09:34:28.091Z,66.5
2023-04-12T09:39:34.866Z,66.5
2023-04-12T09:44:42.831Z,66.5
2023-04-12T09:49:50.766Z,66
2023-04-12T09:54:58.754Z,66
2023-04-12T10:00:06.765Z,66.5
2023-04-12T10:05:14.754Z,66.5
2023-04-12T10:10:22.612Z,66.5
2023-04-12T10:15:30.560Z,66.5
2023-04-12T10:20:38.534Z,66.5
2023-04-12T10:25:46.520Z,66.5
2023-04-12T10:30:54.435Z,66.5
2023-04-12T10:36:02.469Z,66.5
2023-04-12T10:41:10.378Z,66.5
2023-04-12T10:46:18.363Z,66.5
2023-04-12T10:51:26.315Z,67
2023-04-12T10:56:34.245Z,67
2023-04-12T11:01:42.394Z,67
2023-04-12T11:06:50.140Z,67
2023-04-12T11:11:58.168Z,67.5
2023-04-12T11:17:06.172Z,68
2023-04-12T11:22:14.079Z,68
2023-04-12T11:27:21.987Z,68
2023-04-12T11:32:29.999Z,69
2023-04-12T11:37:37.903Z,69
2023-04-12T11:47:53.851Z,69.5
2023-04-12T11:53:00.005Z,69.5
2023-04-12T11:58:07.945Z,69.5
2023-04-12T12:03:16.045Z,69.5
2023-04-12T12:08:23.860Z,69
2023-04-12T12:13:30.037Z,69
2023-04-12T12:18:37.985Z,69
2023-04-12T12:23:45.963Z,69
2023-04-12T12:28:53.921Z,69
2023-04-12T12:34:04.240Z,69
2023-04-12T12:39:09.809Z,68.5
2023-04-12T12:44:17.749Z,69
2023-04-12T12:49:25.732Z,69
2023-04-12T12:59:41.656Z,69
2023-04-12T13:04:49.663Z,69
2023-04-12T13:09:57.574Z,69
2023-04-12T13:15:18.113Z,69.5
2023-04-12T13:20:13.489Z,69
2023-04-12T13:25:21.433Z,69.5
2023-04-12T13:30:29.428Z,69.5
2023-04-12T13:35:37.346Z,69
2023-04-12T13:40:45.324Z,69
2023-04-12T13:45:53.323Z,69
2023-04-12T13:51:01.231Z,69.5
2023-04-12T13:56:09.195Z,69.5
2023-04-12T14:06:25.099Z,69.5
2023-04-12T14:11:33.077Z,69.5
2023-04-12T14:16:41.059Z,69.5
2023-04-12T14:21:49.011Z,69.5
2023-04-12T14:26:56.930Z,69.5
2023-04-12T14:32:04.914Z,69.5
2023-04-12T14:37:12.861Z,69
2023-04-12T14:42:20.830Z,69
2023-04-12T14:47:28.873Z,69
2023-04-12T14:52:36.726Z,69
2023-04-12T14:57:44.692Z,69
2023-04-12T15:02:53.064Z,69
2023-04-12T15:08:00.599Z,69
2023-04-12T15:13:08.598Z,69
2023-04-12T15:18:16.540Z,69
2023-04-12T15:23:24.467Z,68.5
2023-04-12T15:28:32.447Z,68.5
2023-04-12T15:33:40.394Z,68.5
2023-04-12T15:38:48.376Z,68
2023-04-12T15:43:56.370Z,68
2023-04-12T15:49:04.259Z,68
2023-04-12T15:54:12.225Z,67.5
2023-04-12T15:59:20.193Z,67.5
2023-04-12T16:04:28.193Z,67.5
2023-04-12T16:09:34.291Z,67.5
2023-04-12T16:14:42.473Z,67.5
2023-04-12T16:19:50.214Z,67.5
2023-04-12T16:24:58.160Z,67.5
2023-04-12T16:30:06.146Z,67.5
2023-04-12T16:35:14.083Z,67.5
2023-04-12T16:40:22.059Z,67
2023-04-12T16:45:30.042Z,67
2023-04-12T16:50:37.997Z,67
2023-04-12T16:55:45.935Z,66.5
2023-04-12T17:00:53.888Z,66.5
2023-04-12T17:06:01.869Z,66.5
2023-04-12T17:11:09.813Z,66.5
2023-04-12T17:16:17.745Z,66.5
2023-04-12T17:21:25.726Z,66.5
2023-04-12T17:26:33.678Z,66.5
2023-04-12T17:31:41.644Z,66.5
2023-04-12T17:36:49.567Z,66.5
2023-04-12T17:41:57.536Z,66.5
2023-04-12T17:47:05.503Z,66.5
2023-04-12T17:52:13.450Z,66.5
2023-04-12T17:57:21.416Z,66.5
2023-04-12T18:02:30.030Z,66.5
2023-04-12T18:07:37.324Z,66.5
2023-04-12T18:12:45.392Z,66.5
2023-04-12T18:17:53.335Z,66.5
2023-04-12T18:23:01.205Z,66.5
2023-04-12T18:28:09.182Z,66.5
2023-04-12T18:33:17.096Z,66
2023-04-12T18:38:25.251Z,66
2023-04-12T18:43:33.057Z,66
2023-04-12T18:53:48.961Z,66
2023-04-12T18:58:56.922Z,66
2023-04-12T19:04:05.053Z,66
2023-04-12T19:09:12.808Z,66
2023-04-12T19:14:20.845Z,66
2023-04-12T19:19:28.762Z,66
2023-04-12T19:24:36.694Z,65.5
2023-04-12T19:29:44.661Z,65.5
2023-04-12T19:34:52.623Z,65.5
2023-04-12T19:40:00.572Z,65.5
2023-04-12T19:45:08.542Z,65.5
2023-04-12T19:50:16.513Z,65.5
2023-04-12T19:55:24.469Z,65.5
2023-04-12T20:00:32.418Z,65.5
2023-04-12T20:05:40.359Z,65.5
2023-04-12T20:10:48.318Z,65.5
2023-04-12T20:15:56.358Z,65.5
2023-04-12T20:21:04.275Z,65.5
2023-04-12T20:26:12.205Z,65.5
2023-04-12T20:31:20.249Z,65.5
2023-04-12T20:36:28.146Z,65.5
2023-04-12T20:41:36.098Z,65.5
2023-04-12T20:46:44.128Z,65
2023-04-12T20:51:51.995Z,65.5
2023-04-12T20:56:59.959Z,65.5
2023-04-12T21:02:08.053Z,65.5
2023-04-12T21:07:15.920Z,65
2023-04-12T21:12:23.853Z,65.5
2023-04-12T21:17:31.819Z,65.5
2023-04-12T21:22:39.757Z,65.5
2023-04-12T21:27:47.704Z,65.5
2023-04-12T21:32:55.716Z,65.5
2023-04-12T21:38:03.647Z,65
2023-04-12T21:43:11.576Z,65.5
2023-04-12T21:48:19.576Z,65
2023-04-12T21:53:27.504Z,65
2023-04-12T21:58:35.480Z,65.5
2023-04-12T22:03:43.736Z,65.5
2023-04-12T22:08:51.383Z,65.5
2023-04-12T22:13:59.342Z,65.5
2023-04-12T22:19:07.295Z,65.5
2023-04-12T22:24:15.274Z,65.5
2023-04-12T22:29:23.221Z,65.5
2023-04-12T22:34:31.193Z,65
2023-04-12T22:39:39.147Z,65.5
2023-04-12T22:44:47.119Z,65
2023-04-12T22:49:55.074Z,65
2023-04-12T22:55:03.101Z,65
2023-04-12T23:00:11.006Z,65
2023-04-12T23:05:19.012Z,65
2023-04-12T23:10:26.918Z,65
2023-04-12T23:15:34.958Z,65
2023-04-12T23:20:42.826Z,65
2023-04-12T23:25:50.783Z,65
2023-04-12T23:30:58.752Z,65
2023-04-12T23:36:06.712Z,65
2023-04-12T23:41:14.668Z,65
2023-04-12T23:46:22.655Z,65
2023-04-12T23:51:30.580Z,65
2023-04-12T23:56:38.570Z,65
